Time;durP1;ratioP1;P1;durP2;ratioP2;P2;SDS_P1;SDS_P2;PMS_P1;PMS_P2;Temp;Humidity;BMP_temperature;BMP_pressure;BME280_temperature;BME280_humidity;BME280_pressure;Samples;Min_cycle;Max_cycle;Signal;HPM_P1;HPM_P2
2022/07/05 00:00:15;;;;;;;2.20;1.50;;;13.90;99.20;;;;;;5106846;28;20214;-90
2022/07/05 00:02:42;;;;;;;2.67;1.67;;;14.00;99.20;;;;;;5087981;28;20302;-90
2022/07/05 00:05:09;;;;;;;3.37;1.57;;;14.00;99.10;;;;;;5088483;28;20230;-90
2022/07/05 00:07:36;;;;;;;4.70;1.50;;;14.00;99.30;;;;;;5105659;28;20211;-90
2022/07/05 00:10:04;;;;;;;2.03;1.50;;;14.00;99.30;;;;;;5090194;28;20284;-90
2022/07/05 00:12:33;;;;;;;4.13;1.80;;;14.10;99.30;;;;;;5079697;28;20237;-90
2022/07/05 00:15:00;;;;;;;2.73;1.53;;;14.10;99.40;;;;;;5078151;28;20275;-90
2022/07/05 00:17:27;;;;;;;3.83;1.70;;;14.10;99.30;;;;;;5078599;28;20227;-90
2022/07/05 00:19:54;;;;;;;5.00;2.07;;;14.20;99.30;;;;;;5085259;28;20210;-90
2022/07/05 00:22:21;;;;;;;2.97;1.30;;;14.20;99.30;;;;;;5075890;28;20378;-91
2022/07/05 00:24:48;;;;;;;3.40;1.40;;;14.20;99.30;;;;;;5065220;28;20274;-90
2022/07/05 00:27:17;;;;;;;5.23;1.53;;;14.20;99.10;;;;;;5071747;28;20433;-91
2022/07/05 00:29:45;;;;;;;5.93;1.60;;;14.30;99.10;;;;;;5099048;28;20209;-91
2022/07/05 00:32:12;;;;;;;5.17;1.60;;;14.30;99.30;;;;;;5092716;28;20252;-90
2022/07/05 00:34:38;;;;;;;5.40;1.60;;;14.20;99.20;;;;;;5066315;28;20231;-91
2022/07/05 00:37:05;;;;;;;4.53;1.90;;;14.20;99.10;;;;;;5095572;28;20246;-91
2022/07/05 00:39:32;;;;;;;4.40;1.80;;;14.10;99.20;;;;;;5067328;28;20221;-91
2022/07/05 00:42:00;;;;;;;1.97;1.43;;;14.10;99.30;;;;;;5070489;28;20230;-90
2022/07/05 00:44:32;;;;;;;2.50;1.53;;;14.10;99.40;;;;;;5070521;28;20219;-91
2022/07/05 00:47:00;;;;;;;3.17;1.70;;;14.10;99.40;;;;;;5074226;28;20228;-90
2022/07/05 00:49:27;;;;;;;5.10;1.80;;;14.00;99.30;;;;;;5078731;28;20330;-90
2022/07/05 00:51:54;;;;;;;6.00;1.60;;;13.90;99.30;;;;;;5080003;28;20242;-90
2022/07/05 00:54:21;;;;;;;6.13;1.53;;;13.90;99.50;;;;;;5082837;28;20286;-89
2022/07/05 00:56:48;;;;;;;3.17;1.70;;;13.90;99.60;;;;;;5082055;28;20256;-91
2022/07/05 00:59:15;;;;;;;3.17;1.70;;;13.90;99.70;;;;;;5073518;28;20235;-90
2022/07/05 01:01:42;;;;;;;3.43;1.50;;;13.80;99.70;;;;;;5074309;28;20249;-91
2022/07/05 01:04:12;;;;;;;4.63;1.67;;;13.80;99.60;;;;;;5090500;28;20270;-91
2022/07/05 01:06:39;;;;;;;6.13;1.73;;;13.80;99.80;;;;;;5090782;28;20223;-91
2022/07/05 01:09:06;;;;;;;5.47;1.70;;;13.80;99.80;;;;;;5088126;28;20286;-90
2022/07/05 01:11:33;;;;;;;3.87;1.60;;;13.70;99.90;;;;;;5071542;28;20208;-90
2022/07/05 01:14:00;;;;;;;4.83;1.80;;;13.70;99.90;;;;;;5072952;28;20213;-91
2022/07/05 01:16:27;;;;;;;3.90;1.73;;;13.70;99.90;;;;;;5087349;28;20225;-91
2022/07/05 01:18:54;;;;;;;2.67;2.00;;;13.70;99.90;;;;;;5081418;28;20754;-90
2022/07/05 01:21:23;;;;;;;3.60;1.60;;;13.70;99.90;;;;;;5087987;28;20255;-90
2022/07/05 01:23:52;;;;;;;2.83;1.60;;;13.70;99.90;;;;;;5085787;28;20421;-90
2022/07/05 01:26:19;;;;;;;2.80;1.77;;;13.70;99.90;;;;;;5078700;28;20252;-90
2022/07/05 01:28:46;;;;;;;3.60;1.90;;;13.60;99.90;;;;;;5086526;28;20220;-90
2022/07/05 01:31:12;;;;;;;4.03;1.70;;;13.60;99.90;;;;;;5091460;28;20236;-90
2022/07/05 01:33:39;;;;;;;5.07;1.97;;;13.60;99.90;;;;;;5091917;28;20284;-90
2022/07/05 01:36:07;;;;;;;2.90;1.70;;;13.60;99.90;;;;;;5091415;28;20217;-91
2022/07/05 01:38:33;;;;;;;3.47;1.90;;;13.60;99.90;;;;;;5087994;28;20475;-89
2022/07/05 01:41:02;;;;;;;4.90;2.27;;;13.60;99.90;;;;;;5109952;27;20202;-90
2022/07/05 01:43:28;;;;;;;3.37;1.70;;;13.60;99.90;;;;;;5092306;28;20267;-91
2022/07/05 01:45:57;;;;;;;5.63;1.83;;;13.60;99.90;;;;;;5088993;28;20220;-89
2022/07/05 01:48:24;;;;;;;2.87;1.83;;;13.50;99.90;;;;;;5091756;28;20251;-91
2022/07/05 01:50:55;;;;;;;3.23;1.80;;;13.50;99.90;;;;;;5093359;28;20343;-91
2022/07/05 01:53:24;;;;;;;2.90;1.77;;;13.50;99.90;;;;;;5092654;28;20210;-90
2022/07/05 01:55:51;;;;;;;4.90;1.93;;;13.50;99.90;;;;;;5091736;28;20229;-90
2022/07/05 01:58:19;;;;;;;4.57;1.80;;;13.50;99.90;;;;;;5089077;28;20238;-91
2022/07/05 02:00:48;;;;;;;3.67;1.70;;;13.40;99.90;;;;;;5090290;28;20201;-90
2022/07/05 02:03:15;;;;;;;3.83;2.10;;;13.50;99.90;;;;;;5090669;28;20893;-91
2022/07/05 02:05:43;;;;;;;3.37;1.50;;;13.40;99.90;;;;;;5097528;28;20285;-90
2022/07/05 02:08:15;;;;;;;5.90;2.10;;;13.40;99.90;;;;;;5086651;28;20201;-91
2022/07/05 02:10:43;;;;;;;2.70;1.80;;;13.30;99.90;;;;;;5086956;28;20225;-90
2022/07/05 02:13:11;;;;;;;4.03;1.90;;;13.30;99.90;;;;;;5064849;28;20251;-91
2022/07/05 02:15:41;;;;;;;3.80;1.80;;;13.30;99.90;;;;;;5080225;28;20323;-90
2022/07/05 02:18:10;;;;;;;2.80;1.90;;;13.20;99.90;;;;;;5090972;28;20215;-91
2022/07/05 02:20:41;;;;;;;3.80;1.73;;;13.20;99.90;;;;;;5094592;28;20249;-90
2022/07/05 02:23:09;;;;;;;4.23;1.70;;;13.10;99.90;;;;;;5090795;28;20230;-89
2022/07/05 02:25:38;;;;;;;2.97;1.93;;;13.10;99.90;;;;;;5088530;28;20214;-90
2022/07/05 02:28:10;;;;;;;4.60;2.10;;;13.10;99.90;;;;;;5089192;28;20207;-90
2022/07/05 02:30:40;;;;;;;6.33;2.30;;;13.00;99.90;;;;;;5090594;28;20210;-90
2022/07/05 02:33:06;;;;;;;5.27;2.27;;;12.90;99.90;;;;;;5088123;28;20273;-91
2022/07/05 02:35:33;;;;;;;4.80;2.37;;;12.90;99.90;;;;;;5090775;28;20226;-91
2022/07/05 02:38:00;;;;;;;5.60;2.07;;;12.80;99.90;;;;;;5086546;28;20291;-90
2022/07/05 02:40:27;;;;;;;4.50;2.20;;;12.70;99.90;;;;;;5090646;28;20303;-90
2022/07/05 02:42:54;;;;;;;2.67;1.87;;;12.70;99.90;;;;;;5084583;28;20215;-91
2022/07/05 02:45:20;;;;;;;2.53;2.03;;;12.60;99.90;;;;;;5089886;28;20246;-90
2022/07/05 02:47:55;;;;;;;6.47;2.03;;;12.60;99.90;;;;;;5088486;28;20222;-91
2022/07/05 02:50:22;;;;;;;6.37;2.10;;;12.50;99.90;;;;;;5087685;28;20254;-90
2022/07/05 02:52:51;;;;;;;4.23;2.10;;;12.50;99.90;;;;;;5090988;28;20246;-90
2022/07/05 02:55:18;;;;;;;3.93;1.90;;;12.50;99.90;;;;;;5104642;28;20445;-90
2022/07/05 02:57:46;;;;;;;6.40;2.10;;;12.40;99.90;;;;;;5090305;28;20206;-91
2022/07/05 03:00:15;;;;;;;5.17;2.33;;;12.40;99.90;;;;;;5091406;28;20233;-90
2022/07/05 03:02:45;;;;;;;5.07;2.60;;;12.30;99.90;;;;;;5088787;28;20206;-91
2022/07/05 03:05:14;;;;;;;3.83;1.90;;;12.30;99.90;;;;;;5089335;28;20310;-91
2022/07/05 03:07:46;;;;;;;5.53;2.13;;;12.30;99.90;;;;;;5090942;28;20215;-90
2022/07/05 03:10:13;;;;;;;4.87;2.20;;;12.20;99.90;;;;;;5088281;28;20214;-89
2022/07/05 03:12:39;;;;;;;3.67;2.00;;;12.20;99.90;;;;;;5081180;28;20276;-94
2022/07/05 03:15:11;;;;;;;4.57;2.40;;;12.20;99.90;;;;;;5086284;28;20224;-90
2022/07/05 03:17:38;;;;;;;3.17;2.30;;;12.10;99.90;;;;;;5089920;28;20227;-90
2022/07/05 03:20:06;;;;;;;3.20;2.10;;;12.00;99.90;;;;;;5090378;28;20265;-91
2022/07/05 03:22:34;;;;;;;2.97;2.17;;;12.10;99.90;;;;;;5091351;28;20224;-90
2022/07/05 03:25:02;;;;;;;4.70;2.43;;;12.00;99.90;;;;;;5089224;28;20223;-91
2022/07/05 03:27:31;;;;;;;5.37;2.60;;;12.00;99.90;;;;;;5092486;28;20213;-90
2022/07/05 03:29:58;;;;;;;4.73;2.50;;;11.90;99.90;;;;;;5103896;28;21084;-90
2022/07/05 03:32:26;;;;;;;6.57;2.80;;;11.90;99.90;;;;;;5088864;28;20215;-90
2022/07/05 03:34:53;;;;;;;3.43;2.30;;;11.90;99.90;;;;;;5105424;27;20224;-89
2022/07/05 03:37:20;;;;;;;3.90;2.30;;;11.90;99.90;;;;;;5075037;28;20236;-90
2022/07/05 03:39:48;;;;;;;3.83;2.47;;;11.80;99.90;;;;;;5090013;28;20267;-90
2022/07/05 03:42:15;;;;;;;4.83;2.50;;;11.80;99.90;;;;;;5088971;28;20220;-91
2022/07/05 03:44:42;;;;;;;3.10;2.20;;;11.80;99.90;;;;;;5084335;28;20214;-90
2022/07/05 03:47:09;;;;;;;6.60;2.90;;;11.80;99.90;;;;;;5088429;28;20219;-90
2022/07/05 03:49:36;;;;;;;4.73;2.20;;;11.80;99.90;;;;;;5091923;28;20217;-90
2022/07/05 03:52:04;;;;;;;4.17;2.43;;;11.80;99.90;;;;;;5093081;28;20225;-91
2022/07/05 03:54:31;;;;;;;4.53;2.77;;;11.80;99.90;;;;;;5088016;28;20222;-90
2022/07/05 03:57:00;;;;;;;6.73;2.50;;;11.80;99.90;;;;;;5101379;27;20206;-90
2022/07/05 03:59:27;;;;;;;5.13;2.67;;;11.80;99.90;;;;;;5088228;28;20205;-91
2022/07/05 04:01:54;;;;;;;4.93;3.00;;;11.80;99.90;;;;;;5081525;28;20203;-91
2022/07/05 04:04:21;;;;;;;7.43;2.63;;;11.80;99.90;;;;;;5086635;28;20232;-90
2022/07/05 04:06:48;;;;;;;6.07;2.70;;;11.90;99.90;;;;;;5086428;28;20204;-90
2022/07/05 04:09:16;;;;;;;5.70;3.10;;;11.90;99.90;;;;;;5085629;28;20200;-91
2022/07/05 04:11:44;;;;;;;3.80;2.60;;;11.90;99.90;;;;;;5090390;28;20322;-90
2022/07/05 04:14:12;;;;;;;10.23;2.70;;;12.00;99.90;;;;;;5090067;28;20301;-91
2022/07/05 04:16:40;;;;;;;6.50;3.20;;;12.00;99.90;;;;;;5088349;27;20290;-91
2022/07/05 04:19:07;;;;;;;5.70;2.50;;;12.00;99.90;;;;;;5083412;28;20213;-91
2022/07/05 04:21:37;;;;;;;4.73;3.17;;;12.10;99.90;;;;;;5086086;28;20215;-91
2022/07/05 04:24:05;;;;;;;3.90;2.77;;;12.00;99.90;;;;;;5088349;28;20209;-91
2022/07/05 04:26:32;;;;;;;5.17;3.10;;;12.10;99.90;;;;;;5088447;28;20313;-91
2022/07/05 04:28:59;;;;;;;3.20;2.63;;;12.10;99.90;;;;;;5075159;28;20211;-94
2022/07/05 04:31:31;;;;;;;7.23;4.00;;;12.10;99.90;;;;;;5083774;28;20218;-91
2022/07/05 04:33:58;;;;;;;5.13;3.13;;;12.10;99.90;;;;;;5080613;28;20222;-91
2022/07/05 04:36:29;;;;;;;7.07;3.07;;;12.20;99.90;;;;;;5088220;28;20222;-92
2022/07/05 04:38:57;;;;;;;4.40;3.10;;;12.20;99.90;;;;;;5090750;28;20236;-94
2022/07/05 04:41:26;;;;;;;5.43;3.20;;;12.20;99.90;;;;;;5103191;28;20534;-95
2022/07/05 04:43:54;;;;;;;5.97;3.10;;;12.30;99.90;;;;;;5085733;28;20231;-95
2022/07/05 04:46:21;;;;;;;3.83;2.87;;;12.30;99.90;;;;;;5082098;28;20236;-95
2022/07/05 04:48:51;;;;;;;4.77;3.27;;;12.40;99.90;;;;;;5083477;28;20210;-94
2022/07/05 04:51:19;;;;;;;6.83;3.30;;;12.50;99.90;;;;;;5085188;28;20214;-95
2022/07/05 04:53:46;;;;;;;5.50;3.30;;;12.60;99.90;;;;;;5090685;28;20276;-95
2022/07/05 04:56:13;;;;;;;8.10;3.50;;;12.60;99.90;;;;;;5094714;28;20225;-94
2022/07/05 04:58:39;;;;;;;5.10;2.97;;;12.70;99.90;;;;;;5091858;28;20213;-95
2022/07/05 05:01:06;;;;;;;7.43;3.30;;;12.70;99.90;;;;;;5091399;28;20223;-94
2022/07/05 05:03:34;;;;;;;6.10;3.00;;;12.80;99.90;;;;;;5080718;28;20242;-94
2022/07/05 05:06:02;;;;;;;5.87;2.93;;;12.90;99.90;;;;;;5084938;28;20254;-94
2022/07/05 05:08:29;;;;;;;5.47;2.80;;;13.00;99.90;;;;;;5069357;28;20233;-93
2022/07/05 05:10:56;;;;;;;7.17;2.83;;;13.10;99.90;;;;;;5084575;28;20202;-94
2022/07/05 05:13:23;;;;;;;4.37;3.00;;;13.10;99.90;;;;;;5088191;28;20212;-95
2022/07/05 05:15:50;;;;;;;3.77;2.87;;;13.30;99.90;;;;;;5089009;28;20216;-91
2022/07/05 05:18:18;;;;;;;4.00;2.47;;;13.40;99.90;;;;;;5077519;28;20213;-92
2022/07/05 05:20:45;;;;;;;3.07;2.00;;;13.40;99.90;;;;;;5080145;28;20830;-93
2022/07/05 05:23:14;;;;;;;6.07;2.40;;;13.50;99.90;;;;;;5079258;28;20237;-95
2022/07/05 05:25:41;;;;;;;4.77;2.00;;;13.60;99.90;;;;;;5071088;28;20226;-92
2022/07/05 05:28:07;;;;;;;3.43;2.10;;;13.60;99.90;;;;;;5081184;28;20221;-94
2022/07/05 05:30:34;;;;;;;3.83;2.07;;;13.70;99.90;;;;;;5089074;28;20240;-94
2022/07/05 05:33:01;;;;;;;3.17;1.47;;;13.90;99.90;;;;;;5081114;28;20222;-94
2022/07/05 05:35:28;;;;;;;4.53;1.97;;;14.00;99.90;;;;;;5088026;28;20297;-94
2022/07/05 05:37:56;;;;;;;3.87;1.67;;;14.10;99.90;;;;;;5088002;28;20234;-91
2022/07/05 05:40:26;;;;;;;4.67;2.03;;;14.10;99.90;;;;;;5100539;28;20218;-91
2022/07/05 05:42:54;;;;;;;4.60;2.00;;;14.30;99.90;;;;;;5084487;28;20229;-91
2022/07/05 05:45:21;;;;;;;3.67;1.70;;;14.40;99.90;;;;;;5084956;28;20296;-91
2022/07/05 05:47:52;;;;;;;3.63;1.50;;;14.50;99.90;;;;;;5079708;28;20253;-90
2022/07/05 05:50:20;;;;;;;3.50;1.40;;;14.60;99.90;;;;;;5080779;28;20249;-90
2022/07/05 05:52:47;;;;;;;2.27;1.60;;;14.80;99.90;;;;;;5090316;28;20240;-89
2022/07/05 05:55:14;;;;;;;5.17;1.73;;;14.90;99.90;;;;;;5087558;28;20266;-90
2022/07/05 05:57:42;;;;;;;5.63;2.33;;;15.00;99.90;;;;;;5081939;28;20222;-92
2022/07/05 06:00:11;;;;;;;7.27;2.03;;;15.10;99.90;;;;;;5085271;28;20269;-89
2022/07/05 06:02:41;;;;;;;3.60;1.63;;;15.10;99.90;;;;;;5085335;28;20223;-91
2022/07/05 06:05:09;;;;;;;3.40;1.83;;;15.10;99.90;;;;;;5091830;28;20210;-91
2022/07/05 06:07:49;;;;;;;3.60;1.77;;;15.20;99.90;;;;;;5092369;28;20217;-89
2022/07/05 06:10:18;;;;;;;3.57;1.77;;;15.20;99.90;;;;;;5087657;28;20206;-89
2022/07/05 06:12:46;;;;;;;4.97;1.33;;;15.20;99.90;;;;;;5088768;28;20263;-90
2022/07/05 06:15:13;;;;;;;3.40;1.70;;;15.10;99.90;;;;;;5093743;28;20220;-90
2022/07/05 06:17:40;;;;;;;4.27;1.50;;;15.20;99.90;;;;;;5088411;28;20236;-89
2022/07/05 06:20:08;;;;;;;3.93;1.60;;;15.20;99.90;;;;;;5087095;28;20201;-90
2022/07/05 06:22:35;;;;;;;4.33;2.10;;;15.30;99.90;;;;;;5111978;27;20234;-90
2022/07/05 06:25:02;;;;;;;3.27;1.60;;;15.50;99.90;;;;;;5091476;28;20215;-89
2022/07/05 06:27:29;;;;;;;2.57;1.47;;;15.60;99.90;;;;;;5086068;28;20203;-89
2022/07/05 06:29:57;;;;;;;4.13;1.37;;;15.80;99.90;;;;;;5086926;28;20211;-89
2022/07/05 06:32:24;;;;;;;2.10;1.37;;;16.00;99.90;;;;;;5092501;28;20233;-89
2022/07/05 06:34:51;;;;;;;3.10;1.20;;;16.20;99.90;;;;;;5083881;28;20218;-90
2022/07/05 06:37:17;;;;;;;5.23;1.60;;;16.50;99.90;;;;;;5110739;28;20203;-90
2022/07/05 06:39:44;;;;;;;3.53;1.40;;;16.70;99.90;;;;;;5087556;28;20230;-89
2022/07/05 06:42:11;;;;;;;3.80;1.37;;;16.90;99.20;;;;;;5092240;28;20263;-90
2022/07/05 06:44:38;;;;;;;5.93;1.80;;;17.00;99.00;;;;;;5103327;28;20226;-89
2022/07/05 06:47:06;;;;;;;4.50;1.30;;;17.20;98.80;;;;;;5091176;28;20194;-90
2022/07/05 06:49:33;;;;;;;6.87;1.83;;;17.40;98.40;;;;;;5105875;28;20289;-89
2022/07/05 06:51:59;;;;;;;5.73;1.93;;;17.50;98.00;;;;;;5090357;28;20286;-90
2022/07/05 06:54:26;;;;;;;4.75;1.38;;;17.60;97.90;;;;;;5074189;28;20278;-90
2022/07/05 06:56:55;;;;;;;2.97;1.57;;;17.70;97.30;;;;;;5100893;28;20222;-91
2022/07/05 06:59:21;;;;;;;2.00;1.30;;;17.80;97.20;;;;;;5087208;28;20263;-90
2022/07/05 07:01:48;;;;;;;4.00;1.60;;;17.90;97.10;;;;;;5087162;28;20218;-90
2022/07/05 07:04:16;;;;;;;3.13;1.40;;;17.90;97.20;;;;;;5088652;28;20213;-90
2022/07/05 07:06:43;;;;;;;4.03;1.63;;;17.90;96.50;;;;;;5090274;28;20215;-90
2022/07/05 07:09:18;;;;;;;3.97;1.37;;;17.90;96.50;;;;;;5082975;28;20282;-90
2022/07/05 07:11:46;;;;;;;4.22;1.10;;;18.00;96.80;;;;;;5081107;28;20210;-91
2022/07/05 07:14:13;;;;;;;4.15;1.13;;;18.20;97.00;;;;;;5088025;28;20227;-91
2022/07/05 07:16:39;;;;;;;2.28;1.00;;;18.50;97.00;;;;;;5090536;28;20211;-90
2022/07/05 07:19:06;;;;;;;2.90;1.10;;;19.20;96.60;;;;;;5085703;28;20250;-90
2022/07/05 07:21:34;;;;;;;2.30;0.70;;;19.70;95.40;;;;;;5105531;28;20199;-90
2022/07/05 07:24:01;;;;;;;1.83;0.90;;;20.40;94.40;;;;;;5087406;28;20233;-91
2022/07/05 07:26:28;;;;;;;3.97;1.13;;;21.10;93.70;;;;;;5083828;28;20215;-91
2022/07/05 07:28:55;;;;;;;4.30;0.95;;;21.80;93.00;;;;;;5088321;28;20207;-91
2022/07/05 07:31:21;;;;;;;3.53;1.20;;;22.40;92.20;;;;;;5092044;28;20218;-91
2022/07/05 07:33:48;;;;;;;2.35;1.02;;;23.00;91.30;;;;;;5083853;28;20286;-91
2022/07/05 07:36:15;;;;;;;1.95;1.30;;;23.50;90.20;;;;;;5088015;28;20210;-91
2022/07/05 07:38:43;;;;;;;2.72;0.90;;;24.00;88.90;;;;;;5087542;28;20207;-91
2022/07/05 07:41:10;;;;;;;2.72;0.93;;;24.50;84.60;;;;;;5081653;28;20234;-91
2022/07/05 07:43:36;;;;;;;1.02;0.80;;;24.90;84.60;;;;;;5086122;28;20207;-91
2022/07/05 07:46:03;;;;;;;3.15;0.90;;;25.40;83.90;;;;;;5077202;28;20219;-91
2022/07/05 07:48:34;;;;;;;5.00;1.10;;;25.80;81.90;;;;;;5078892;28;20658;-95
2022/07/05 07:51:01;;;;;;;1.63;0.88;;;26.10;77.00;;;;;;5076168;28;20219;-95
2022/07/05 07:53:28;;;;;;;2.70;0.73;;;26.20;74.60;;;;;;5067104;28;20234;-94
2022/07/05 07:55:58;;;;;;;1.33;0.65;;;26.00;73.00;;;;;;5079215;28;20272;-95
2022/07/05 07:58:25;;;;;;;1.60;0.80;;;26.00;72.30;;;;;;5075461;28;20310;-95
2022/07/05 08:01:01;;;;;;;4.28;0.80;;;26.00;72.50;;;;;;5072261;28;20219;-95
2022/07/05 08:03:29;;;;;;;2.70;0.70;;;26.00;71.90;;;;;;5070540;28;20213;-95
2022/07/05 08:05:59;;;;;;;1.35;0.63;;;26.10;70.90;;;;;;5080949;28;20278;-94
2022/07/05 08:08:26;;;;;;;1.40;0.60;;;26.20;70.20;;;;;;5093243;28;20238;-95
2022/07/05 08:10:54;;;;;;;3.88;1.30;;;26.30;70.00;;;;;;5093097;28;20222;-94
2022/07/05 08:13:23;;;;;;;4.10;0.90;;;26.20;69.00;;;;;;5072353;28;20231;-94
2022/07/05 08:15:50;;;;;;;1.42;0.60;;;26.30;68.80;;;;;;5079252;28;20287;-94
2022/07/05 08:23:49;;;;;;;1.27;0.85;;;27.30;67.20;;;;;;5077461;28;20572;-95
2022/07/05 08:26:18;;;;;;;0.88;0.60;;;27.70;66.00;;;;;;5097253;28;20246;-94
2022/07/05 08:28:48;;;;;;;1.08;0.30;;;28.00;61.50;;;;;;5073808;28;20214;-95
2022/07/05 08:31:15;;;;;;;1.40;0.30;;;28.30;58.60;;;;;;5059253;28;20334;-95
2022/07/05 08:33:42;;;;;;;0.93;0.50;;;28.60;57.40;;;;;;5098527;28;20230;-94
2022/07/05 08:36:10;;;;;;;0.98;0.45;;;28.80;56.30;;;;;;5078960;28;20261;-94
2022/07/05 08:38:37;;;;;;;2.17;0.50;;;29.00;55.20;;;;;;5077848;28;20232;-95
2022/07/05 08:41:12;;;;;;;0.63;0.38;;;29.10;53.80;;;;;;5078503;28;20238;-95
2022/07/05 08:43:42;;;;;;;0.60;0.30;;;29.00;53.90;;;;;;5078501;28;20242;-96
2022/07/05 08:46:13;;;;;;;0.52;0.35;;;28.80;50.90;;;;;;5069221;28;20225;-95
2022/07/05 08:48:43;;;;;;;1.92;0.68;;;28.40;51.70;;;;;;5055703;28;20218;-94
2022/07/05 08:51:13;;;;;;;0.70;0.50;;;27.90;52.40;;;;;;5073986;28;20222;-96
2022/07/05 08:53:42;;;;;;;1.13;0.70;;;27.50;52.80;;;;;;5097034;28;20246;-95
2022/07/05 08:56:16;;;;;;;1.00;0.45;;;27.40;53.40;;;;;;5076543;28;20280;-95
2022/07/05 08:58:44;;;;;;;1.48;0.40;;;27.20;52.90;;;;;;5079323;28;20218;-95
2022/07/05 09:01:23;;;;;;;1.02;0.50;;;27.20;52.90;;;;;;5070211;28;20227;-95
2022/07/05 09:03:53;;;;;;;1.95;0.50;;;27.30;52.00;;;;;;5081468;28;20219;-94
2022/07/05 09:06:23;;;;;;;0.80;0.60;;;27.40;52.10;;;;;;5072955;28;20564;-94
2022/07/05 09:08:54;;;;;;;3.00;0.50;;;27.60;52.90;;;;;;5071098;28;20227;-95
2022/07/05 09:11:25;;;;;;;2.65;0.98;;;27.80;52.30;;;;;;5070810;28;20876;-95
2022/07/05 09:13:53;;;;;;;1.85;0.50;;;27.90;51.80;;;;;;5085159;28;20235;-95
2022/07/05 09:16:24;;;;;;;1.25;0.40;;;28.20;52.20;;;;;;5072069;28;20249;-95
2022/07/05 09:18:55;;;;;;;1.38;0.70;;;28.30;51.70;;;;;;5080963;28;20227;-94
2022/07/05 09:21:24;;;;;;;1.15;0.70;;;28.30;51.70;;;;;;5081535;28;20231;-95
2022/07/05 09:23:58;;;;;;;1.60;0.43;;;28.30;50.50;;;;;;5080482;28;20318;-94
2022/07/05 09:26:33;;;;;;;0.43;0.40;;;28.20;50.30;;;;;;5069778;28;20246;-95
2022/07/05 09:29:01;;;;;;;1.27;0.50;;;28.00;51.00;;;;;;5101561;28;20206;-96
2022/07/05 09:31:33;;;;;;;1.13;0.60;;;27.60;50.90;;;;;;5086823;28;20214;-95
2022/07/05 09:34:09;;;;;;;1.75;0.70;;;27.40;51.10;;;;;;5078163;28;20238;-94
2022/07/05 09:36:54;;;;;;;1.73;0.45;;;27.00;51.00;;;;;;5083687;28;20267;-95
2022/07/05 09:39:39;;;;;;;1.95;0.50;;;26.60;51.90;;;;;;5066513;28;20227;-94
2022/07/05 09:42:11;;;;;;;0.98;0.40;;;26.20;52.00;;;;;;5078753;28;20231;-95
2022/07/05 09:44:39;;;;;;;2.13;0.77;;;25.90;51.90;;;;;;5086314;28;20230;-95
2022/07/05 09:47:12;;;;;;;0.77;0.60;;;25.60;51.80;;;;;;5088166;28;20234;-94
2022/07/05 09:49:42;;;;;;;2.42;0.88;;;25.30;52.40;;;;;;5082256;28;20294;-95
2022/07/05 09:52:11;;;;;;;1.70;0.60;;;25.10;53.00;;;;;;5085095;28;20203;-95
2022/07/05 09:54:38;;;;;;;2.17;0.60;;;24.90;53.40;;;;;;5088441;28;20213;-95
2022/07/05 09:57:06;;;;;;;2.03;0.60;;;24.70;54.00;;;;;;5085477;28;20203;-95
2022/07/05 09:59:32;;;;;;;2.35;0.70;;;24.70;54.60;;;;;;5085466;28;20264;-95
2022/07/05 10:02:00;;;;;;;3.13;0.68;;;24.70;54.30;;;;;;5062443;28;20560;-95
2022/07/05 10:04:29;;;;;;;1.38;0.60;;;24.60;54.20;;;;;;5079626;28;20236;-95
2022/07/05 10:06:59;;;;;;;1.75;0.60;;;24.50;54.60;;;;;;5081163;28;20223;-96
2022/07/05 10:09:32;;;;;;;1.80;0.55;;;24.50;54.60;;;;;;5089600;28;20226;-96
2022/07/05 10:12:04;;;;;;;1.55;0.50;;;24.60;54.80;;;;;;5088072;28;20267;-95
2022/07/05 10:14:31;;;;;;;1.98;0.60;;;24.80;55.50;;;;;;5089664;28;20214;-95
2022/07/05 10:17:01;;;;;;;3.30;0.70;;;25.20;55.40;;;;;;5085812;28;20199;-94
2022/07/05 10:19:35;;;;;;;1.10;0.40;;;25.60;54.80;;;;;;5102315;28;20203;-94
2022/07/05 10:22:04;;;;;;;1.60;0.52;;;26.00;53.80;;;;;;5096477;28;20224;-96
2022/07/05 10:24:36;;;;;;;0.80;0.40;;;26.40;52.70;;;;;;5082881;28;20239;-95
2022/07/05 10:27:07;;;;;;;1.95;0.40;;;26.90;50.90;;;;;;5085566;28;20211;-95
2022/07/05 10:29:35;;;;;;;0.90;0.55;;;27.30;50.20;;;;;;5085831;28;20227;-96
2022/07/05 10:32:04;;;;;;;1.10;0.40;;;27.60;49.90;;;;;;5105195;27;20206;-95
2022/07/05 10:34:34;;;;;;;2.05;0.52;;;27.80;48.90;;;;;;5087177;28;20227;-95
2022/07/05 10:37:01;;;;;;;2.20;0.47;;;28.10;49.50;;;;;;5086420;28;20256;-95
2022/07/05 10:39:31;;;;;;;2.08;0.38;;;28.40;50.20;;;;;;5083707;28;20215;-94
2022/07/05 10:41:59;;;;;;;1.23;0.50;;;28.70;50.30;;;;;;5090114;28;21511;-95
2022/07/05 10:44:32;;;;;;;1.48;0.55;;;29.00;51.00;;;;;;5090054;28;20212;-96
2022/07/05 10:47:10;;;;;;;1.40;0.45;;;29.20;48.80;;;;;;5090907;28;20210;-95
2022/07/05 10:49:39;;;;;;;1.23;0.30;;;29.40;48.70;;;;;;5084909;28;20219;-94
2022/07/05 10:52:23;;;;;;;0.65;0.40;;;29.40;47.10;;;;;;5084535;28;20293;-96
2022/07/05 10:55:23;;;;;;;1.20;0.40;;;29.30;46.90;;;;;;5099235;28;20281;-95
2022/07/05 10:58:28;;;;;;;0.80;0.50;;;29.20;46.90;;;;;;5087736;28;20202;-95
2022/07/05 11:01:34;;;;;;;1.25;0.50;;;29.20;46.60;;;;;;5085599;28;20251;-96
2022/07/05 11:04:27;;;;;;;0.57;0.28;;;29.10;46.70;;;;;;5086825;28;20220;-95
2022/07/05 11:06:55;;;;;;;0.88;0.50;;;29.00;46.90;;;;;;5087509;28;20209;-95
2022/07/05 11:09:23;;;;;;;1.02;0.47;;;28.90;47.40;;;;;;5099710;28;20221;-96
2022/07/05 11:12:06;;;;;;;0.90;0.32;;;28.80;47.00;;;;;;5089220;28;20203;-95
2022/07/05 11:14:40;;;;;;;1.65;0.43;;;28.80;47.50;;;;;;5085546;28;20220;-95
2022/07/05 11:17:29;;;;;;;3.78;0.65;;;28.90;47.40;;;;;;5106780;28;20195;-95
2022/07/05 11:20:01;;;;;;;0.98;0.52;;;29.00;46.60;;;;;;5095883;28;20334;-95
2022/07/05 11:22:30;;;;;;;1.70;0.55;;;29.00;46.40;;;;;;5090327;28;20229;-95
2022/07/05 11:24:57;;;;;;;1.10;0.43;;;28.80;46.30;;;;;;5106599;28;20206;-95
2022/07/05 11:27:25;;;;;;;1.00;0.50;;;28.60;46.40;;;;;;5100652;28;20222;-96
2022/07/05 11:29:52;;;;;;;1.25;0.65;;;28.30;46.60;;;;;;5099818;28;20214;-95
2022/07/05 11:32:22;;;;;;;1.48;0.60;;;28.00;47.00;;;;;;5083922;28;20212;-95
2022/07/05 11:34:50;;;;;;;2.75;0.57;;;27.70;47.20;;;;;;5100281;28;20281;-95
2022/07/05 11:37:23;;;;;;;2.85;0.50;;;27.50;47.50;;;;;;5083737;28;20211;-96
2022/07/05 11:40:27;;;;;;;1.17;0.57;;;27.30;47.90;;;;;;5091293;28;20326;-96
2022/07/05 11:42:55;;;;;;;0.75;0.40;;;27.20;48.20;;;;;;5076930;28;20297;-95
2022/07/05 11:45:22;;;;;;;1.33;0.50;;;27.30;47.70;;;;;;5081093;28;20215;-94
2022/07/05 11:47:49;;;;;;;0.95;0.43;;;27.40;47.70;;;;;;5069451;28;20233;-94
2022/07/05 11:50:16;;;;;;;0.98;0.40;;;27.60;48.00;;;;;;5077216;28;20231;-95
2022/07/05 11:52:43;;;;;;;2.45;0.60;;;27.70;48.00;;;;;;5083356;28;20360;-94
2022/07/05 11:55:11;;;;;;;2.22;0.43;;;27.80;47.20;;;;;;5091537;28;20208;-90
2022/07/05 11:57:49;;;;;;;1.50;0.63;;;28.00;47.40;;;;;;5091463;28;20225;-90
2022/07/05 12:00:26;;;;;;;4.35;0.60;;;28.10;47.60;;;;;;5091165;28;20234;-89
2022/07/05 12:02:53;;;;;;;1.83;0.60;;;28.20;47.30;;;;;;5103295;28;20245;-91
2022/07/05 12:05:20;;;;;;;1.52;0.90;;;28.30;47.10;;;;;;5083599;28;20361;-89
2022/07/05 12:07:50;;;;;;;1.90;0.60;;;28.40;47.40;;;;;;5073132;28;20239;-90
2022/07/05 12:13:05;;;;;;;1.05;0.40;;;28.60;46.50;;;;;;5080101;28;20226;-89
2022/07/05 12:15:33;;;;;;;2.60;0.55;;;28.70;46.50;;;;;;5091368;28;20219;-89
2022/07/05 12:18:03;;;;;;;2.38;0.50;;;28.70;46.30;;;;;;5082832;28;20204;-90
2022/07/05 12:20:31;;;;;;;1.05;0.47;;;28.60;46.30;;;;;;5069075;28;20219;-90
2022/07/05 12:22:58;;;;;;;1.58;0.52;;;28.40;46.10;;;;;;5085557;28;20266;-89
2022/07/05 12:25:26;;;;;;;0.98;0.43;;;28.20;46.40;;;;;;5080103;28;20226;-90
2022/07/05 12:27:55;;;;;;;1.77;0.60;;;27.90;46.30;;;;;;5088836;28;20270;-89
2022/07/05 12:30:22;;;;;;;0.95;0.50;;;27.80;46.50;;;;;;5100504;28;20211;-89
2022/07/05 12:33:01;;;;;;;1.63;0.60;;;27.40;46.90;;;;;;5082985;28;20223;-89
2022/07/05 12:35:29;;;;;;;0.80;0.50;;;27.20;47.10;;;;;;5096665;28;20282;-90
2022/07/05 12:37:56;;;;;;;1.23;0.63;;;27.10;47.60;;;;;;5081162;28;20204;-90
2022/07/05 12:40:24;;;;;;;1.75;0.80;;;27.10;47.20;;;;;;5061878;28;20247;-90
2022/07/05 12:43:01;;;;;;;1.20;0.60;;;27.10;47.60;;;;;;5074337;28;20211;-90
2022/07/05 12:45:28;;;;;;;1.55;0.60;;;27.20;47.10;;;;;;5084775;28;20230;-92
2022/07/05 12:47:57;;;;;;;1.05;0.57;;;27.20;47.80;;;;;;5070668;28;20231;-90
2022/07/05 12:50:28;;;;;;;1.85;0.60;;;27.20;47.80;;;;;;5068630;28;20261;-89
2022/07/05 12:53:00;;;;;;;1.25;0.50;;;27.20;47.70;;;;;;5080250;28;20271;-91
2022/07/05 12:58:19;;;;;;;1.23;0.50;;;27.10;46.90;;;;;;5075420;28;20226;-89
2022/07/05 13:00:46;;;;;;;0.82;0.40;;;27.00;47.80;;;;;;5072628;28;20272;-91
2022/07/05 13:03:13;;;;;;;1.52;0.70;;;27.00;47.90;;;;;;5084677;28;20226;-91
2022/07/05 13:05:41;;;;;;;1.33;0.55;;;27.00;48.40;;;;;;5067833;28;20277;-90